createdAt,value
2022-10-10T00:00:02.260Z,0.00
2022-10-10T00:01:02.217Z,0.00
2022-10-10T00:02:02.223Z,0.00
2022-10-10T00:03:02.122Z,0.00
2022-10-10T00:04:02.080Z,0.00
2022-10-10T00:05:02.035Z,0.00
2022-10-10T00:06:01.994Z,0.00
2022-10-10T00:07:01.965Z,0.00
2022-10-10T00:08:01.916Z,0.00
2022-10-10T00:09:01.865Z,0.00
2022-10-10T00:10:01.818Z,0.00
2022-10-10T00:11:01.776Z,0.00
2022-10-10T00:12:01.752Z,0.00
2022-10-10T00:13:01.693Z,0.00
2022-10-10T00:14:01.648Z,0.00
2022-10-10T00:15:01.606Z,0.00
2022-10-10T00:16:01.557Z,0.00
2022-10-10T00:17:01.521Z,0.00
2022-10-10T00:18:01.496Z,0.00
2022-10-10T00:19:01.434Z,0.00
2022-10-10T00:20:01.391Z,0.00
2022-10-10T00:21:01.345Z,0.00
2022-10-10T00:22:01.302Z,0.00
2022-10-10T00:23:01.257Z,0.00
2022-10-10T00:24:01.225Z,0.00
2022-10-10T00:25:01.173Z,0.00
2022-10-10T00:26:04.453Z,0.00
2022-10-10T00:27:01.085Z,0.00
2022-10-10T00:28:01.043Z,0.00
2022-10-10T00:29:01.001Z,0.00
2022-10-10T00:30:00.983Z,0.00
2022-10-10T00:31:00.914Z,0.00
2022-10-10T00:32:00.867Z,0.00
2022-10-10T00:33:00.826Z,0.00
2022-10-10T00:34:00.785Z,0.00
2022-10-10T00:35:00.742Z,0.00
2022-10-10T00:36:00.888Z,0.00
2022-10-10T00:37:00.660Z,0.00
2022-10-10T00:38:00.609Z,0.00
2022-10-10T00:39:00.570Z,0.00
2022-10-10T00:40:00.520Z,0.00
2022-10-10T00:41:00.482Z,0.00
2022-10-10T00:42:00.466Z,0.00
2022-10-10T00:43:00.400Z,0.00
2022-10-10T00:44:00.351Z,0.00
2022-10-10T00:45:00.308Z,0.00
2022-10-10T00:46:00.268Z,0.00
2022-10-10T00:47:00.219Z,0.00
2022-10-10T00:48:00.188Z,0.00
2022-10-10T00:49:00.135Z,0.00
2022-10-10T00:50:00.155Z,0.00
2022-10-10T00:51:00.054Z,0.00
2022-10-10T00:52:00.006Z,0.00
2022-10-10T00:52:59.961Z,0.00
2022-10-10T00:53:59.923Z,0.00
2022-10-10T00:54:59.882Z,0.00
2022-10-10T00:55:59.857Z,0.00
2022-10-10T00:56:59.789Z,0.00
2022-10-10T00:57:59.749Z,0.00
2022-10-10T00:58:59.708Z,0.00
2022-10-10T00:59:59.660Z,0.00
2022-10-10T01:00:59.638Z,0.00
2022-10-10T01:01:59.588Z,0.00
2022-10-10T01:02:59.527Z,0.00
2022-10-10T01:03:59.490Z,0.00
2022-10-10T01:04:59.444Z,0.00
2022-10-10T01:05:59.402Z,0.00
2022-10-10T01:06:59.674Z,0.00
2022-10-10T01:08:01.134Z,0.00
2022-10-10T01:08:59.268Z,0.00
2022-10-10T01:09:59.234Z,0.00
2022-10-10T01:10:59.186Z,0.00
2022-10-10T01:11:59.144Z,0.00
2022-10-10T01:12:59.120Z,0.00
2022-10-10T01:13:59.057Z,0.00
2022-10-10T01:14:59.013Z,0.00
2022-10-10T01:15:58.967Z,0.00
2022-10-10T01:16:58.928Z,0.00
2022-10-10T01:17:58.885Z,0.00
2022-10-10T01:18:58.865Z,0.00
2022-10-10T01:19:58.802Z,0.00
2022-10-10T01:20:58.752Z,0.00
2022-10-10T01:21:58.712Z,0.00
2022-10-10T01:22:58.665Z,0.00
2022-10-10T01:23:58.621Z,0.00
2022-10-10T01:24:58.593Z,0.00
2022-10-10T01:25:58.540Z,0.00
2022-10-10T01:26:58.492Z,0.00
2022-10-10T01:27:58.449Z,0.00
2022-10-10T01:28:58.412Z,0.00
2022-10-10T01:29:58.365Z,0.00
2022-10-10T01:30:58.347Z,0.00
2022-10-10T01:31:58.282Z,0.00
2022-10-10T01:32:58.234Z,0.00
2022-10-10T01:33:58.191Z,0.00
2022-10-10T01:34:58.157Z,0.00
2022-10-10T01:35:58.104Z,0.00
2022-10-10T01:36:58.074Z,0.00
2022-10-10T01:37:58.024Z,0.00
2022-10-10T01:38:57.978Z,0.00
2022-10-10T01:39:57.936Z,0.00
2022-10-10T01:40:57.887Z,0.00
2022-10-10T01:41:57.870Z,0.00
2022-10-10T01:42:57.808Z,0.00
2022-10-10T01:43:57.763Z,0.00
2022-10-10T01:44:57.714Z,0.00
2022-10-10T01:45:57.678Z,0.00
2022-10-10T01:46:57.630Z,0.00
2022-10-10T01:47:57.676Z,0.00
2022-10-10T01:48:57.544Z,0.00
2022-10-10T01:49:57.503Z,0.00
2022-10-10T01:50:57.455Z,0.00
2022-10-10T01:51:57.413Z,0.00
2022-10-10T01:52:57.369Z,0.00
2022-10-10T01:53:57.349Z,0.00
2022-10-10T01:54:57.300Z,0.00
2022-10-10T01:55:57.245Z,0.00
2022-10-10T01:56:57.197Z,0.00
2022-10-10T01:57:57.158Z,0.00
2022-10-10T01:58:57.110Z,0.00
2022-10-10T01:59:57.069Z,0.00
2022-10-10T02:00:57.075Z,0.00
2022-10-10T02:01:56.988Z,0.00
2022-10-10T02:02:56.942Z,0.00
2022-10-10T02:03:56.892Z,0.00
2022-10-10T02:04:56.863Z,0.00
2022-10-10T02:05:56.811Z,0.00
2022-10-10T02:06:56.779Z,0.00
2022-10-10T02:07:56.727Z,0.00
2022-10-10T02:08:56.683Z,0.00
2022-10-10T02:09:56.639Z,0.00
2022-10-10T02:10:56.608Z,0.00
2022-10-10T02:11:56.551Z,0.00
2022-10-10T02:12:56.542Z,0.00
2022-10-10T02:13:56.466Z,0.00
2022-10-10T02:14:56.427Z,0.00
2022-10-10T02:15:56.395Z,0.00
2022-10-10T02:16:56.340Z,0.00
2022-10-10T02:17:56.299Z,0.00
2022-10-10T02:18:56.252Z,0.00
2022-10-10T02:19:56.204Z,0.00
2022-10-10T02:20:56.168Z,0.00
2022-10-10T02:21:56.142Z,0.00
2022-10-10T02:22:56.075Z,0.00
2022-10-10T02:23:56.035Z,0.00
2022-10-10T02:24:55.991Z,0.00
2022-10-10T02:25:55.951Z,0.00
2022-10-10T02:26:55.903Z,0.00
2022-10-10T02:27:56.045Z,0.00
2022-10-10T02:28:55.815Z,0.00
2022-10-10T02:29:55.776Z,0.00
2022-10-10T02:30:55.731Z,0.00
2022-10-10T02:31:55.694Z,0.00
2022-10-10T02:32:55.645Z,0.00
2022-10-10T02:33:55.626Z,0.00
2022-10-10T02:34:55.564Z,0.00
2022-10-10T02:35:55.518Z,0.00
2022-10-10T02:36:55.473Z,0.00
2022-10-10T02:37:55.431Z,0.00
2022-10-10T02:38:55.390Z,0.00
2022-10-10T02:39:55.455Z,0.00
2022-10-10T02:40:55.309Z,0.00
2022-10-10T02:41:55.261Z,0.00
2022-10-10T02:42:55.213Z,0.00
2022-10-10T02:43:55.171Z,0.00
2022-10-10T02:44:55.124Z,0.00
2022-10-10T02:45:55.103Z,0.00
2022-10-10T02:46:55.042Z,0.00
2022-10-10T02:47:55.001Z,0.00
2022-10-10T02:48:54.955Z,0.00
2022-10-10T02:49:54.908Z,0.00
2022-10-10T02:50:54.866Z,0.00
2022-10-10T02:51:54.847Z,0.00
2022-10-10T02:52:54.777Z,0.00
2022-10-10T02:53:54.739Z,0.00
2022-10-10T02:54:54.695Z,0.00
2022-10-10T02:55:54.651Z,0.00
2022-10-10T02:56:54.607Z,0.00
2022-10-10T02:57:54.605Z,0.00
2022-10-10T02:58:54.523Z,0.00
2022-10-10T02:59:54.480Z,0.00
2022-10-10T03:00:54.484Z,0.00
2022-10-10T03:01:54.397Z,0.00
2022-10-10T03:02:54.535Z,0.00
2022-10-10T03:03:54.325Z,0.00
2022-10-10T03:04:54.258Z,0.00
2022-10-10T03:05:54.222Z,0.00
2022-10-10T03:06:54.173Z,0.00
2022-10-10T03:07:54.133Z,0.00
2022-10-10T03:08:54.088Z,0.00
2022-10-10T03:09:54.059Z,0.00
2022-10-10T03:10:54.000Z,0.00
2022-10-10T03:11:53.964Z,0.00
2022-10-10T03:12:54.110Z,0.00
2022-10-10T03:13:53.876Z,0.00
2022-10-10T03:14:53.842Z,0.00
2022-10-10T03:15:53.793Z,0.00
2022-10-10T03:16:53.761Z,0.00
2022-10-10T03:17:53.702Z,0.00
2022-10-10T03:18:53.657Z,0.00
2022-10-10T03:19:53.611Z,0.00
2022-10-10T03:20:53.573Z,0.00
2022-10-10T03:21:53.526Z,0.00
2022-10-10T03:22:53.685Z,0.00
2022-10-10T03:23:53.437Z,0.00
2022-10-10T03:24:53.393Z,0.00
2022-10-10T03:25:53.353Z,0.00
2022-10-10T03:26:53.314Z,0.00
2022-10-10T03:27:53.270Z,0.00
2022-10-10T03:28:53.242Z,0.00
2022-10-10T03:29:53.182Z,0.00
2022-10-10T03:30:53.138Z,0.00
2022-10-10T03:31:53.116Z,0.00
2022-10-10T03:32:53.448Z,0.00
2022-10-10T03:33:53.009Z,0.00
2022-10-10T03:34:52.963Z,0.00
2022-10-10T03:35:52.918Z,0.00
2022-10-10T03:36:52.877Z,0.00
2022-10-10T03:37:52.868Z,0.00
2022-10-10T03:38:52.792Z,0.00
2022-10-10T03:39:52.742Z,0.00
2022-10-10T03:40:52.702Z,0.00
2022-10-10T03:41:52.656Z,0.00
2022-10-10T03:42:53.067Z,0.00
2022-10-10T03:43:52.591Z,0.00
2022-10-10T03:44:52.527Z,0.00
2022-10-10T03:45:52.483Z,0.00
2022-10-10T03:46:52.442Z,0.00
2022-10-10T03:47:52.395Z,0.00
2022-10-10T03:48:52.351Z,0.00
2022-10-10T03:49:52.325Z,0.00
2022-10-10T03:50:52.269Z,0.00
2022-10-10T03:51:52.223Z,0.00
2022-10-10T03:52:52.318Z,0.00
2022-10-10T03:53:52.138Z,0.00
2022-10-10T03:54:52.095Z,0.00
2022-10-10T03:55:52.070Z,0.00
2022-10-10T03:56:52.002Z,0.00
2022-10-10T03:57:51.963Z,0.00
2022-10-10T03:58:51.916Z,0.00
2022-10-10T03:59:51.877Z,0.00
2022-10-10T04:00:52.282Z,0.00
2022-10-10T04:01:51.826Z,0.00
2022-10-10T04:02:52.020Z,0.00
2022-10-10T04:03:52.361Z,0.00
2022-10-10T04:04:51.658Z,0.00
2022-10-10T04:05:51.615Z,0.00
2022-10-10T04:06:51.570Z,0.00
2022-10-10T04:07:51.542Z,0.00
2022-10-10T04:08:51.483Z,0.00
2022-10-10T04:09:51.447Z,0.00
2022-10-10T04:10:51.397Z,0.00
2022-10-10T04:11:51.362Z,0.00
2022-10-10T04:12:51.574Z,0.00
2022-10-10T04:13:51.295Z,0.00
2022-10-10T04:14:51.228Z,0.00
2022-10-10T04:15:51.188Z,0.00
2022-10-10T04:16:51.140Z,0.00
2022-10-10T04:17:51.100Z,0.00
2022-10-10T04:18:51.051Z,0.00
2022-10-10T04:19:51.028Z,0.00
2022-10-10T04:20:50.970Z,0.00
2022-10-10T04:21:50.925Z,0.00
2022-10-10T04:22:51.040Z,0.00
2022-10-10T04:23:50.832Z,0.00
2022-10-10T04:24:50.788Z,0.00
2022-10-10T04:25:51.079Z,0.00
2022-10-10T04:26:50.704Z,0.00
2022-10-10T04:27:50.663Z,0.00
2022-10-10T04:28:50.617Z,0.00
2022-10-10T04:29:50.574Z,0.00
2022-10-10T04:30:50.527Z,0.00
2022-10-10T04:31:50.510Z,0.00
2022-10-10T04:32:50.704Z,0.00
2022-10-10T04:33:50.397Z,0.00
2022-10-10T04:34:50.359Z,0.00
2022-10-10T04:35:50.322Z,0.00
2022-10-10T04:36:50.268Z,0.00
2022-10-10T04:37:50.235Z,0.00
2022-10-10T04:38:50.680Z,0.00
2022-10-10T04:39:50.138Z,0.00
2022-10-10T04:40:50.099Z,0.00
2022-10-10T04:41:50.118Z,0.00
2022-10-10T04:42:50.285Z,0.00
2022-10-10T04:43:49.984Z,0.00
2022-10-10T04:44:49.919Z,0.00
2022-10-10T04:45:49.881Z,0.00
2022-10-10T04:46:49.843Z,0.00
2022-10-10T04:47:49.794Z,0.00
2022-10-10T04:48:49.750Z,0.00
2022-10-10T04:49:49.740Z,0.00
2022-10-10T04:50:49.663Z,0.00
2022-10-10T04:51:49.626Z,0.00
2022-10-10T04:52:49.723Z,0.00
2022-10-10T04:53:50.573Z,0.00
2022-10-10T04:54:49.487Z,0.00
2022-10-10T04:55:49.492Z,0.00
2022-10-10T04:56:49.404Z,0.00
2022-10-10T04:57:49.358Z,0.00
2022-10-10T04:58:49.319Z,0.00
2022-10-10T04:59:49.277Z,0.00
2022-10-10T05:00:49.230Z,0.00
2022-10-10T05:01:49.225Z,0.00
2022-10-10T05:02:49.457Z,0.00
2022-10-10T05:03:49.126Z,0.00
2022-10-10T05:04:49.053Z,0.00
2022-10-10T05:05:49.006Z,0.00
2022-10-10T05:06:48.996Z,0.00
2022-10-10T05:07:53.032Z,0.00
2022-10-10T05:08:48.885Z,0.00
2022-10-10T05:09:48.838Z,0.00
2022-10-10T05:10:48.798Z,0.00
2022-10-10T05:11:48.752Z,0.00
2022-10-10T05:12:48.827Z,0.00
2022-10-10T05:13:48.663Z,0.00
2022-10-10T05:14:48.622Z,0.00
2022-10-10T05:15:48.579Z,0.00
2022-10-10T05:16:48.550Z,4.00
2022-10-10T05:17:48.489Z,4.00
2022-10-10T05:18:48.462Z,4.00
2022-10-10T05:19:48.422Z,8.00
2022-10-10T05:20:48.363Z,8.00
2022-10-10T05:21:48.319Z,8.00
2022-10-10T05:22:48.437Z,12.00
2022-10-10T05:23:48.228Z,12.00
2022-10-10T05:24:48.190Z,16.00
2022-10-10T05:25:48.156Z,20.00
2022-10-10T05:26:48.104Z,24.00
2022-10-10T05:27:48.057Z,28.00
2022-10-10T05:28:48.048Z,32.00
2022-10-10T05:29:47.979Z,40.00
2022-10-10T05:30:47.929Z,48.00
2022-10-10T05:31:47.911Z,56.00
2022-10-10T05:32:47.916Z,64.00
2022-10-10T05:33:47.800Z,72.00
2022-10-10T05:34:47.759Z,84.00
2022-10-10T05:35:47.713Z,92.00
2022-10-10T05:36:47.670Z,108.00
2022-10-10T05:37:47.643Z,116.00
2022-10-10T05:38:47.586Z,128.00
2022-10-10T05:39:51.115Z,140.00
2022-10-10T05:40:47.506Z,152.00
2022-10-10T05:41:47.454Z,168.00
2022-10-10T05:42:47.428Z,180.00
2022-10-10T05:43:47.373Z,196.00
2022-10-10T05:44:47.327Z,216.00
2022-10-10T05:45:47.289Z,236.00
2022-10-10T05:46:47.244Z,260.00
2022-10-10T05:47:47.196Z,280.00
2022-10-10T05:48:47.164Z,308.00
2022-10-10T05:49:47.116Z,336.00
2022-10-10T05:50:47.075Z,356.00
2022-10-10T05:51:47.027Z,384.00
2022-10-10T05:52:46.983Z,408.00
2022-10-10T05:53:46.942Z,428.00
2022-10-10T05:54:46.909Z,448.00
2022-10-10T05:55:46.857Z,468.00
2022-10-10T05:56:46.813Z,484.00
2022-10-10T05:57:46.765Z,504.00
2022-10-10T05:58:46.725Z,524.00
2022-10-10T05:59:46.683Z,548.00
2022-10-10T06:03:47.420Z,688.00
2022-10-10T06:04:47.274Z,732.00
2022-10-10T06:05:47.127Z,780.00
2022-10-10T06:06:47.300Z,828.00
2022-10-10T06:08:04.539Z,868.00
2022-10-10T06:08:46.912Z,896.00
2022-10-10T06:09:47.072Z,920.00
2022-10-10T06:10:47.064Z,932.00
2022-10-10T06:11:46.728Z,948.00
2022-10-10T06:12:47.045Z,964.00
2022-10-10T06:13:46.720Z,992.00
2022-10-10T06:14:47.196Z,1028.00
2022-10-10T06:15:46.551Z,1072.00
2022-10-10T06:16:46.508Z,1124.00
2022-10-10T06:17:46.604Z,1176.00
2022-10-10T06:18:46.418Z,1236.00
2022-10-10T06:19:46.619Z,1300.00
2022-10-10T06:20:46.400Z,1368.00
2022-10-10T06:21:46.471Z,1444.00
2022-10-10T06:22:46.326Z,1516.00
2022-10-10T06:23:46.443Z,1596.00
2022-10-10T06:24:50.792Z,1692.00
2022-10-10T06:25:46.262Z,1804.00
2022-10-10T06:26:46.212Z,1932.00
2022-10-10T06:27:46.078Z,2076.00
2022-10-10T06:28:46.238Z,2228.00
2022-10-10T06:29:45.950Z,2376.00
2022-10-10T06:30:46.293Z,2496.00
2022-10-10T06:31:45.954Z,2608.00
2022-10-10T06:32:46.000Z,2680.00
2022-10-10T06:33:45.788Z,2736.00
2022-10-10T06:34:46.015Z,2784.00
2022-10-10T06:35:45.687Z,2840.00
2022-10-10T06:36:46.865Z,2908.00
2022-10-10T06:37:45.596Z,2988.00
2022-10-10T06:38:45.689Z,3060.00
2022-10-10T06:39:45.605Z,3144.00
2022-10-10T06:40:45.645Z,3208.00
2022-10-10T06:41:45.438Z,3284.00
2022-10-10T06:42:45.662Z,3376.00
2022-10-10T06:43:45.349Z,3500.00
2022-10-10T06:44:45.304Z,3628.00
2022-10-10T06:45:45.699Z,3740.00
2022-10-10T06:46:45.217Z,3848.00
2022-10-10T06:47:47.357Z,3928.00
2022-10-10T06:48:45.129Z,3984.00
2022-10-10T06:49:45.091Z,3996.00
2022-10-10T06:50:45.045Z,3988.00
2022-10-10T06:51:45.030Z,3964.00
2022-10-10T06:52:45.132Z,3964.00
2022-10-10T06:53:57.172Z,3980.00
2022-10-10T06:56:47.915Z,4396.00
2022-10-10T06:57:47.325Z,4636.00
2022-10-10T07:00:27.463Z,5196.00
2022-10-10T07:01:29.030Z,5372.00
2022-10-10T07:02:27.019Z,5544.00
2022-10-10T07:06:51.853Z,6544.00
2022-10-10T07:07:50.603Z,6904.00
2022-10-10T07:09:19.640Z,7180.00
2022-10-10T07:09:53.179Z,7408.00
2022-10-10T07:10:50.230Z,7812.00
2022-10-10T07:12:01.782Z,8368.00
2022-10-10T07:12:44.670Z,8796.00
2022-10-10T07:13:41.480Z,9016.00
2022-10-10T07:14:41.283Z,8992.00
2022-10-10T07:15:41.520Z,8748.00
2022-10-10T07:16:41.174Z,8568.00
2022-10-10T07:17:41.421Z,8636.00
2022-10-10T07:18:41.372Z,8848.00
2022-10-10T07:19:42.272Z,9160.00
2022-10-10T07:20:41.077Z,9536.00
2022-10-10T07:21:41.239Z,9808.00
2022-10-10T07:22:41.191Z,9904.00
2022-10-10T07:23:41.166Z,9776.00
2022-10-10T07:24:40.961Z,9464.00
2022-10-10T07:25:40.972Z,9120.00
2022-10-10T07:26:40.744Z,8856.00
2022-10-10T07:27:41.023Z,8708.00
2022-10-10T07:28:40.727Z,8660.00
2022-10-10T07:29:40.728Z,8648.00
2022-10-10T07:30:41.290Z,8744.00
2022-10-10T07:31:41.202Z,8796.00
2022-10-10T07:32:40.657Z,8816.00
2022-10-10T07:33:40.607Z,8824.00
2022-10-10T07:34:40.622Z,8888.00
2022-10-10T07:35:40.621Z,8952.00
2022-10-10T07:36:40.462Z,9036.00
2022-10-10T07:37:40.638Z,9052.00
2022-10-10T07:38:40.322Z,8960.00
2022-10-10T07:39:40.744Z,8764.00
2022-10-10T07:40:40.204Z,8432.00
2022-10-10T07:41:40.266Z,7944.00
2022-10-10T07:42:40.100Z,7400.00
2022-10-10T07:43:40.679Z,7088.00
2022-10-10T07:44:40.001Z,7132.00
2022-10-10T07:45:40.082Z,7460.00
2022-10-10T07:46:40.126Z,7884.00
2022-10-10T07:47:39.866Z,8156.00
2022-10-10T07:48:40.105Z,8128.00
2022-10-10T07:49:39.828Z,7972.00
2022-10-10T07:50:39.914Z,7716.00
2022-10-10T07:51:39.732Z,7600.00
2022-10-10T07:52:39.940Z,7640.00
2022-10-10T07:53:39.626Z,7744.00
2022-10-10T07:54:39.750Z,7868.00
2022-10-10T07:55:39.623Z,7932.00
2022-10-10T07:56:39.523Z,7808.00
2022-10-10T07:57:39.791Z,7560.00
2022-10-10T07:58:39.652Z,7220.00
2022-10-10T07:59:39.980Z,6908.00
2022-10-10T08:00:39.338Z,6592.00
2022-10-10T08:01:39.848Z,6164.00
2022-10-10T08:02:39.251Z,5832.00
2022-10-10T08:03:39.207Z,5752.00
2022-10-10T08:04:39.529Z,5832.00
2022-10-10T08:05:39.143Z,6008.00
2022-10-10T08:06:39.310Z,6196.00
2022-10-10T08:07:39.571Z,6404.00
2022-10-10T08:08:48.528Z,6652.00
2022-10-10T08:09:38.958Z,6936.00
2022-10-10T08:10:39.338Z,7200.00
2022-10-10T08:11:38.957Z,7412.00
2022-10-10T08:12:39.085Z,7600.00
2022-10-10T08:13:38.959Z,7772.00
2022-10-10T08:14:38.837Z,7824.00
2022-10-10T08:15:38.724Z,7728.00
2022-10-10T08:16:38.947Z,7464.00
2022-10-10T08:17:38.757Z,7080.00
2022-10-10T08:18:39.004Z,6728.00
2022-10-10T08:19:38.548Z,6452.00
2022-10-10T08:20:38.626Z,6300.00
2022-10-10T08:21:38.855Z,6272.00
2022-10-10T08:22:38.802Z,6456.00
2022-10-10T08:23:38.736Z,6724.00
2022-10-10T08:24:38.441Z,6944.00
2022-10-10T08:25:38.389Z,7120.00
2022-10-10T08:26:38.258Z,7276.00
2022-10-10T08:27:38.441Z,7508.00
2022-10-10T08:28:38.269Z,7724.00
2022-10-10T08:29:38.475Z,7764.00
2022-10-10T08:30:38.253Z,7588.00
2022-10-10T08:31:38.050Z,7276.00
2022-10-10T08:32:38.350Z,6908.00
2022-10-10T08:33:38.410Z,6596.00
2022-10-10T08:34:38.080Z,6456.00
2022-10-10T08:35:37.908Z,6460.00
2022-10-10T08:36:38.069Z,6564.00
2022-10-10T08:37:37.802Z,6604.00
2022-10-10T08:38:37.905Z,6660.00
2022-10-10T08:39:37.755Z,6736.00
2022-10-10T08:40:37.917Z,6748.00
2022-10-10T08:41:37.643Z,6764.00
2022-10-10T08:42:40.659Z,6856.00
2022-10-10T08:43:37.734Z,6984.00
2022-10-10T08:44:37.841Z,7168.00
2022-10-10T08:45:37.754Z,7528.00
2022-10-10T08:46:37.455Z,8052.00
2022-10-10T08:47:37.562Z,8588.00
2022-10-10T08:48:37.351Z,9084.00
2022-10-10T08:49:37.572Z,9600.00
2022-10-10T08:50:37.305Z,10188.00
2022-10-10T08:51:37.382Z,10800.00
2022-10-10T08:52:37.449Z,11404.00
2022-10-10T08:53:37.154Z,11988.00
2022-10-10T08:54:37.335Z,12780.00
2022-10-10T08:55:37.376Z,13556.00
2022-10-10T08:56:37.102Z,14324.00
2022-10-10T08:57:37.231Z,15064.00
2022-10-10T08:58:36.945Z,15780.00
2022-10-10T08:59:36.931Z,16436.00
2022-10-10T09:00:36.965Z,17152.00
2022-10-10T09:02:18.347Z,17440.00
2022-10-10T09:02:53.271Z,17504.00
2022-10-10T09:03:36.746Z,17536.00
2022-10-10T09:04:36.775Z,17664.00
2022-10-10T09:05:36.721Z,18048.00
2022-10-10T09:06:36.686Z,18784.00
2022-10-10T09:07:36.589Z,19840.00
2022-10-10T09:08:36.584Z,21088.00
2022-10-10T09:09:37.290Z,22304.00
2022-10-10T09:10:36.609Z,23616.00
2022-10-10T09:11:36.407Z,24736.00
2022-10-10T09:12:36.715Z,25920.00
2022-10-10T09:13:36.426Z,27168.00
2022-10-10T09:14:36.323Z,30304.00
2022-10-10T09:15:36.263Z,47296.00
2022-10-10T09:16:36.340Z,71744.00
2022-10-10T09:17:36.244Z,61664.00
2022-10-10T09:18:36.198Z,29920.00
2022-10-10T09:19:36.210Z,31520.00
2022-10-10T09:20:36.047Z,29152.00
2022-10-10T09:21:36.169Z,27744.00
2022-10-10T09:22:36.116Z,29696.00
2022-10-10T09:23:35.977Z,29472.00
2022-10-10T09:24:37.822Z,30304.00
2022-10-10T09:25:35.992Z,38848.00
2022-10-10T09:26:36.000Z,52448.00
2022-10-10T09:27:35.793Z,48800.00
2022-10-10T09:28:35.891Z,32800.00
2022-10-10T09:29:35.693Z,31328.00
2022-10-10T09:30:35.833Z,30752.00
2022-10-10T09:31:35.621Z,43744.00
2022-10-10T09:32:35.589Z,61888.00
2022-10-10T09:33:35.657Z,36672.00
2022-10-10T09:34:35.505Z,33664.00
2022-10-10T09:35:35.665Z,29568.00
2022-10-10T09:36:46.334Z,40128.00
2022-10-10T09:37:46.824Z,38272.00
2022-10-10T09:38:38.682Z,37152.00
2022-10-10T09:39:37.537Z,33696.00
2022-10-10T09:40:35.295Z,30144.00
2022-10-10T09:41:35.399Z,29408.00
2022-10-10T09:42:39.531Z,28576.00
2022-10-10T09:43:35.206Z,27296.00
2022-10-10T09:44:36.287Z,25728.00
2022-10-10T09:45:36.249Z,24416.00
2022-10-10T09:46:35.074Z,25344.00
2022-10-10T09:47:36.368Z,31488.00
2022-10-10T09:48:35.044Z,31104.00
2022-10-10T09:49:36.076Z,36384.00
2022-10-10T09:50:43.857Z,36896.00
2022-10-10T09:51:34.880Z,38240.00
2022-10-10T09:52:34.843Z,68768.00
2022-10-10T09:53:34.810Z,60352.00
2022-10-10T09:54:34.769Z,74112.00
2022-10-10T09:55:34.732Z,63008.00
2022-10-10T09:56:34.713Z,81664.00
2022-10-10T09:57:34.661Z,52160.00
2022-10-10T09:58:34.623Z,51680.00
2022-10-10T09:59:34.587Z,50272.00
2022-10-10T10:00:34.561Z,80512.00
2022-10-10T10:01:34.579Z,89568.00
2022-10-10T10:02:34.521Z,68704.00
2022-10-10T10:03:34.453Z,42976.00
2022-10-10T10:04:34.415Z,37664.00
2022-10-10T10:05:34.377Z,31840.00
2022-10-10T10:06:34.345Z,30464.00
2022-10-10T10:07:34.314Z,30560.00
2022-10-10T10:08:34.296Z,32064.00
2022-10-10T10:09:34.240Z,33184.00
2022-10-10T10:10:34.214Z,34816.00
2022-10-10T10:11:34.174Z,35328.00
2022-10-10T10:12:34.138Z,34624.00
2022-10-10T10:13:34.106Z,34944.00
2022-10-10T10:14:34.081Z,32480.00
2022-10-10T10:15:34.050Z,31424.00
2022-10-10T10:16:34.000Z,30688.00
2022-10-10T10:17:33.968Z,30304.00
2022-10-10T10:18:33.928Z,30432.00
2022-10-10T10:19:33.898Z,30688.00
2022-10-10T10:20:33.955Z,31456.00
2022-10-10T10:21:33.825Z,37408.00
2022-10-10T10:22:33.786Z,49312.00
2022-10-10T10:23:33.750Z,51392.00
2022-10-10T10:24:33.717Z,89568.00
2022-10-10T10:25:33.679Z,85472.00
2022-10-10T10:26:33.658Z,86176.00
2022-10-10T10:27:33.608Z,80928.00
2022-10-10T10:28:33.627Z,83712.00
2022-10-10T10:29:33.543Z,88512.00
2022-10-10T10:30:33.504Z,81824.00
2022-10-10T10:31:33.469Z,75808.00
2022-10-10T10:32:33.460Z,74688.00
2022-10-10T10:33:33.400Z,56736.00
2022-10-10T10:34:33.367Z,58720.00
2022-10-10T10:35:33.336Z,33088.00
2022-10-10T10:36:33.301Z,37184.00
2022-10-10T10:37:33.275Z,36224.00
2022-10-10T10:38:33.263Z,84256.00
2022-10-10T10:39:33.207Z,45504.00
2022-10-10T10:40:33.182Z,41696.00
2022-10-10T10:41:33.138Z,109664.00
2022-10-10T10:42:33.106Z,49024.00
2022-10-10T10:43:33.073Z,45024.00
2022-10-10T10:44:33.037Z,47200.00
2022-10-10T10:45:33.025Z,48128.00
2022-10-10T10:46:32.972Z,45408.00
2022-10-10T10:47:33.035Z,42912.00
2022-10-10T10:48:32.899Z,43392.00
2022-10-10T10:49:32.869Z,41152.00
2022-10-10T10:50:32.832Z,40832.00
2022-10-10T10:51:32.819Z,38880.00
2022-10-10T10:52:32.763Z,40352.00
2022-10-10T10:53:32.734Z,37856.00
2022-10-10T10:54:33.425Z,36288.00
2022-10-10T10:55:33.163Z,35648.00
2022-10-10T10:57:39.363Z,34176.00
2022-10-10T11:00:25.826Z,36608.00
2022-10-10T11:01:27.965Z,34368.00
2022-10-10T11:01:52.181Z,33984.00
2022-10-10T11:02:54.924Z,34816.00
2022-10-10T11:05:17.480Z,34880.00
2022-10-10T11:05:22.557Z,35616.00
2022-10-10T11:05:39.770Z,37760.00
2022-10-10T11:06:32.360Z,40960.00
2022-10-10T11:07:32.325Z,44480.00
2022-10-10T11:08:32.195Z,46912.00
2022-10-10T11:09:49.013Z,48192.00
2022-10-10T11:10:32.146Z,50240.00
2022-10-10T11:11:32.094Z,89792.00
2022-10-10T11:12:32.052Z,80096.00
2022-10-10T11:13:32.028Z,73152.00
2022-10-10T11:14:31.990Z,93312.00
2022-10-10T11:15:54.231Z,56864.00
2022-10-10T11:17:36.878Z,61760.00
2022-10-10T11:18:31.844Z,81888.00
2022-10-10T11:19:31.810Z,109184.00
2022-10-10T11:20:31.775Z,74720.00
2022-10-10T11:21:31.766Z,80704.00
2022-10-10T11:22:31.704Z,112256.00
2022-10-10T11:23:31.682Z,110528.00
2022-10-10T11:24:31.645Z,76096.00
2022-10-10T11:25:31.609Z,80704.00
2022-10-10T11:26:31.575Z,77760.00
2022-10-10T11:27:31.579Z,100512.00
2022-10-10T11:28:31.575Z,53952.00
2022-10-10T11:29:31.477Z,96864.00
2022-10-10T11:30:31.446Z,38976.00
2022-10-10T11:31:31.421Z,93120.00
2022-10-10T11:32:31.384Z,38048.00
2022-10-10T11:33:31.393Z,50208.00
2022-10-10T11:34:31.324Z,51552.00
2022-10-10T11:35:31.296Z,74560.00
2022-10-10T11:36:31.262Z,41344.00
2022-10-10T11:37:31.229Z,83968.00
2022-10-10T11:38:31.200Z,83712.00
2022-10-10T11:39:31.195Z,82464.00
2022-10-10T11:40:31.142Z,111648.00
2022-10-10T11:41:31.104Z,80064.00
2022-10-10T11:42:31.076Z,53920.00
2022-10-10T11:43:31.062Z,109920.00
2022-10-10T11:44:31.032Z,110688.00
2022-10-10T11:45:30.983Z,100256.00
2022-10-10T11:46:30.953Z,91488.00
2022-10-10T11:47:30.925Z,103904.00
2022-10-10T11:48:30.893Z,105472.00
2022-10-10T11:49:30.865Z,91872.00
2022-10-10T11:50:30.848Z,94688.00
2022-10-10T11:51:30.809Z,104512.00
2022-10-10T11:52:34.821Z,98592.00
2022-10-10T11:53:30.743Z,88288.00
2022-10-10T11:54:30.708Z,94912.00
2022-10-10T11:55:30.697Z,96512.00
2022-10-10T11:56:30.650Z,90336.00
2022-10-10T11:57:30.625Z,91904.00
2022-10-10T11:58:30.600Z,89248.00
2022-10-10T11:59:30.561Z,90272.00
2022-10-10T12:00:30.549Z,94784.00
2022-10-10T12:01:30.509Z,90784.00
2022-10-10T12:02:30.475Z,86464.00
2022-10-10T12:03:30.442Z,95840.00
2022-10-10T12:04:30.410Z,85152.00
2022-10-10T12:05:30.380Z,80864.00
2022-10-10T12:06:30.366Z,90624.00
2022-10-10T12:07:30.324Z,94816.00
2022-10-10T12:08:30.293Z,85472.00
2022-10-10T12:09:30.263Z,78816.00
2022-10-10T12:10:30.272Z,90816.00
2022-10-10T12:11:30.207Z,96032.00
2022-10-10T12:12:30.177Z,89088.00
2022-10-10T12:13:30.148Z,88224.00
2022-10-10T12:14:30.116Z,94336.00
2022-10-10T12:15:30.087Z,91872.00
2022-10-10T12:16:30.931Z,88448.00
2022-10-10T12:17:30.044Z,95360.00
2022-10-10T12:18:29.998Z,94464.00
2022-10-10T12:19:29.968Z,97184.00
2022-10-10T12:20:29.942Z,93120.00
2022-10-10T12:21:29.922Z,87168.00
2022-10-10T12:22:29.915Z,88224.00
2022-10-10T12:23:29.857Z,95072.00
2022-10-10T12:24:29.830Z,96320.00
2022-10-10T12:25:29.798Z,94720.00
2022-10-10T12:26:29.766Z,95808.00
2022-10-10T12:27:29.733Z,98720.00
2022-10-10T12:28:29.799Z,104352.00
2022-10-10T12:29:29.674Z,95264.00
2022-10-10T12:30:29.653Z,92224.00
2022-10-10T12:31:29.626Z,96960.00
2022-10-10T12:32:29.591Z,98112.00
2022-10-10T12:33:29.564Z,89408.00
2022-10-10T12:34:29.548Z,93248.00
2022-10-10T12:35:29.502Z,98208.00
2022-10-10T12:36:29.471Z,90304.00
2022-10-10T12:37:29.446Z,87712.00
2022-10-10T12:38:29.415Z,96096.00
2022-10-10T12:39:29.422Z,90464.00
2022-10-10T12:40:29.355Z,84128.00
2022-10-10T12:41:29.328Z,86208.00